Regina International Airport
CYQR : rendu visible

Aérodrome :











RETROUVEZ-NOUS SUR...

 
LOGIN :

S'inscrire | Disclaimer

   EN    FR    IT 

 









Légende :    VFR   VFR Marginal   IFR   IFR Intensif   IFR Très Intensif
Visi : 
Plafond : 
>= 8 km
>= 3000ft
5 à 8 km
1000 à 3000 ft
1500m à 5 km
500 à 1000 ft
800 à 1500m
200 à 500 ft
< 800m
< 200 ft
Symboles :   Orages  Brouillard  Fortes neiges  Fortes précipitations  Vent > 20 kt






- Altitude de l'aérodrome : 1894 ft
- Code IATA : YQR


CYQR - Regina International

DERNIER METAR :
  • 222300Z 26009KT 15SM FEW120 02/M02 A2966 RMK AC1 AC TR SLP077

METARs EXPIRÉS :
  • 222200Z 21004KT 15SM FEW180 04/M03 A2963 RMK AC1 AC TR PRESFR SLP062
  • 222100Z 25007KT 15SM SKC 05/M03 A2965 RMK SLP073

TAF TAF CYQR
Valide du 22 à 18h jusqu'au 23 à 18h UTC


221740Z 2218/2318 20006KT P6SM SCT250
BECMG 2219/2221 28012G22KT
FM230000 29015G25KT P6SM FEW220
FM230800 27010KT P6SM FEW120 SCT200 RMK NXT FCST BY 230000Z



MET'MAP, la Météo Aéronautique d'un coup d'oeil ! - Copyright ORBIFLY Décembre 2007 - Disclaimer

ORBIFLY MET'MAP TEAM :

Programmation & Développement : Alexandra Zaïnal
Conception & Développement : Baudouin d'Aumeries
Co-Programmation & Développement : Marc-Olivier Méhu
Soutien technique & logistique : Manuel Goepfert

Contact : metmap@orbifly.com




SOURCES & CREDITS :

   NOAA       Earth
Advisory